Time;durP1;ratioP1;P1;durP2;ratioP2;P2;SDS_P1;SDS_P2;PMS_P1;PMS_P2;Temp;Humidity;BMP_temperature;BMP_pressure;BME280_temperature;BME280_humidity;BME280_pressure;Samples;Min_cycle;Max_cycle;Signal;HPM_P1;HPM_P2
2023/12/02 00:00:46;;;;;;;14.80;10.73;;;1.00;99.90;;;;;;4904114;29;20235;-80
2023/12/02 00:03:15;;;;;;;14.13;10.30;;;0.90;99.90;;;;;;4901044;29;20571;-80
2023/12/02 00:05:43;;;;;;;14.67;10.40;;;1.00;99.90;;;;;;4897503;29;20209;-79
2023/12/02 00:08:10;;;;;;;14.40;10.83;;;1.00;99.90;;;;;;4896245;29;20206;-80
2023/12/02 00:10:37;;;;;;;13.73;10.07;;;1.10;99.90;;;;;;4892401;29;20198;-80
2023/12/02 00:15:56;;;;;;;13.57;9.87;;;1.00;99.90;;;;;;4900223;29;20221;-83
2023/12/02 00:18:25;;;;;;;13.97;10.13;;;0.90;99.90;;;;;;4934813;29;20199;-82
2023/12/02 00:20:52;;;;;;;13.83;9.30;;;1.10;99.90;;;;;;4930886;29;20722;-82
2023/12/02 00:23:20;;;;;;;13.63;10.70;;;1.10;99.90;;;;;;4907481;29;20199;-82
2023/12/02 00:25:47;;;;;;;14.97;10.10;;;1.00;99.90;;;;;;4901255;29;20209;-82
2023/12/02 00:28:15;;;;;;;14.40;10.13;;;0.70;99.90;;;;;;4919017;29;20227;-82
2023/12/02 00:30:42;;;;;;;11.37;9.00;;;0.70;99.90;;;;;;4901722;29;20207;-82
2023/12/02 00:33:10;;;;;;;14.40;10.00;;;0.80;99.90;;;;;;4912311;29;20579;-82
2023/12/02 00:35:39;;;;;;;12.60;9.63;;;1.10;99.90;;;;;;4908204;29;20232;-82
2023/12/02 00:38:07;;;;;;;13.77;9.87;;;1.20;99.90;;;;;;4900094;29;20204;-82
2023/12/02 00:40:34;;;;;;;15.63;9.53;;;1.20;99.90;;;;;;4909841;29;20231;-82
2023/12/02 00:43:02;;;;;;;13.87;9.37;;;1.00;99.90;;;;;;4900521;29;20210;-82
2023/12/02 00:45:29;;;;;;;14.03;10.33;;;1.10;99.90;;;;;;4907997;29;20229;-82
2023/12/02 00:47:57;;;;;;;12.03;9.63;;;1.00;99.90;;;;;;4900533;29;20200;-82
2023/12/02 00:50:24;;;;;;;12.47;9.07;;;1.10;99.90;;;;;;4899096;29;20206;-82
2023/12/02 00:52:53;;;;;;;13.20;8.53;;;1.30;99.90;;;;;;4912627;29;20207;-82
2023/12/02 00:55:20;;;;;;;12.27;9.00;;;1.20;99.90;;;;;;4902370;29;20713;-82
2023/12/02 00:57:48;;;;;;;10.63;8.27;;;1.30;99.90;;;;;;4898363;29;20201;-82
2023/12/02 01:00:17;;;;;;;13.90;9.90;;;1.10;99.90;;;;;;4903739;29;20222;-82
2023/12/02 01:02:45;;;;;;;10.07;7.73;;;1.00;99.90;;;;;;4905643;29;20556;-82
2023/12/02 01:05:12;;;;;;;10.13;8.30;;;1.00;99.90;;;;;;4900188;29;20220;-82
2023/12/02 01:07:39;;;;;;;10.17;8.30;;;1.10;99.90;;;;;;4899841;29;20198;-82
2023/12/02 01:10:11;;;;;;;11.80;8.17;;;1.20;99.90;;;;;;4900167;29;20523;-82
2023/12/02 01:12:39;;;;;;;14.27;8.87;;;1.30;99.90;;;;;;4917961;29;20288;-82
2023/12/02 01:15:08;;;;;;;13.37;9.57;;;1.10;99.90;;;;;;4908805;29;20231;-82
2023/12/02 01:17:35;;;;;;;11.87;8.73;;;1.20;99.90;;;;;;4914608;29;20205;-83
2023/12/02 01:20:03;;;;;;;11.77;8.63;;;1.20;99.90;;;;;;4902150;29;20224;-81
2023/12/02 01:22:30;;;;;;;11.87;8.63;;;1.10;99.90;;;;;;4904833;29;20208;-82
2023/12/02 01:24:57;;;;;;;10.93;8.30;;;1.10;99.90;;;;;;4903171;29;20224;-82
2023/12/02 01:27:26;;;;;;;12.40;8.70;;;1.20;99.90;;;;;;4904477;29;20180;-82
2023/12/02 01:29:54;;;;;;;13.87;9.30;;;1.10;99.90;;;;;;4906237;29;20204;-82
2023/12/02 01:32:21;;;;;;;14.27;10.50;;;1.00;99.90;;;;;;4901995;29;20214;-82
2023/12/02 01:34:49;;;;;;;14.50;10.17;;;1.20;99.90;;;;;;4907823;29;20563;-82
2023/12/02 01:37:16;;;;;;;14.10;10.03;;;1.20;99.90;;;;;;4911652;29;20211;-82
2023/12/02 01:39:44;;;;;;;16.47;9.87;;;1.10;99.90;;;;;;4905827;29;20244;-82
2023/12/02 01:42:11;;;;;;;14.33;10.27;;;1.10;99.90;;;;;;4902872;29;20211;-82
2023/12/02 01:44:40;;;;;;;14.67;10.63;;;1.20;99.90;;;;;;4902667;29;20229;-83
2023/12/02 01:47:15;;;;;;;13.97;9.93;;;1.20;99.90;;;;;;4906113;29;20208;-82
2023/12/02 01:49:45;;;;;;;13.97;9.97;;;1.30;99.90;;;;;;4901699;29;20286;-82
2023/12/02 01:52:13;;;;;;;13.17;9.20;;;1.10;99.90;;;;;;4904038;29;20200;-82
2023/12/02 01:54:40;;;;;;;12.57;9.23;;;1.20;99.90;;;;;;4905190;29;20230;-82
2023/12/02 01:57:08;;;;;;;12.80;9.10;;;1.10;99.90;;;;;;4911687;29;20201;-82
2023/12/02 01:59:36;;;;;;;12.83;9.77;;;1.10;99.90;;;;;;4902267;29;20667;-82
2023/12/02 02:02:06;;;;;;;10.93;8.70;;;1.00;99.90;;;;;;4915978;29;20224;-82
2023/12/02 02:04:33;;;;;;;14.23;10.07;;;1.20;99.90;;;;;;4901876;29;20232;-82
2023/12/02 02:07:01;;;;;;;14.27;10.20;;;1.10;99.90;;;;;;4928073;29;20568;-82
2023/12/02 02:09:34;;;;;;;14.17;9.40;;;1.10;99.90;;;;;;4914122;29;20205;-82
2023/12/02 02:12:01;;;;;;;12.97;9.30;;;1.20;99.90;;;;;;4906636;29;20200;-82
2023/12/02 02:14:29;;;;;;;13.03;9.60;;;1.10;99.90;;;;;;4907013;29;20232;-82
2023/12/02 02:16:56;;;;;;;14.43;9.70;;;1.10;99.90;;;;;;4907972;29;20210;-82
2023/12/02 02:19:25;;;;;;;13.77;9.53;;;1.00;99.90;;;;;;4901112;29;20208;-82
2023/12/02 02:21:54;;;;;;;13.17;8.80;;;1.10;99.90;;;;;;4902812;29;20225;-82
2023/12/02 02:24:21;;;;;;;11.63;9.33;;;1.20;99.90;;;;;;4912210;29;20246;-83
2023/12/02 02:26:49;;;;;;;14.97;9.97;;;1.20;99.90;;;;;;4902275;29;20208;-82
2023/12/02 02:29:17;;;;;;;12.27;8.80;;;1.10;99.90;;;;;;4907472;29;20192;-82
2023/12/02 02:31:44;;;;;;;14.60;9.63;;;1.10;99.90;;;;;;4901178;29;20205;-82
2023/12/02 02:34:12;;;;;;;13.63;9.47;;;1.10;99.90;;;;;;4900976;29;20227;-82
2023/12/02 02:36:39;;;;;;;14.83;9.33;;;1.10;99.90;;;;;;4901293;29;20197;-82
2023/12/02 02:39:09;;;;;;;13.50;10.03;;;1.10;99.90;;;;;;4900985;29;20225;-82
2023/12/02 02:41:36;;;;;;;12.33;8.93;;;1.00;99.90;;;;;;4907770;29;20224;-82
2023/12/02 02:44:04;;;;;;;14.57;10.20;;;1.00;99.90;;;;;;4919483;29;20235;-82
2023/12/02 02:46:31;;;;;;;14.40;9.77;;;1.10;99.90;;;;;;4902984;29;20216;-82
2023/12/02 02:48:59;;;;;;;15.03;9.93;;;1.20;99.90;;;;;;4902250;29;20202;-82
2023/12/02 02:51:26;;;;;;;15.23;10.63;;;1.20;99.90;;;;;;4900943;29;20207;-82
2023/12/02 02:53:53;;;;;;;18.97;10.50;;;1.20;99.90;;;;;;4903286;29;20236;-82
2023/12/02 02:56:22;;;;;;;16.37;10.07;;;1.10;99.90;;;;;;4899899;29;20197;-82
2023/12/02 02:58:50;;;;;;;16.37;10.43;;;1.00;99.90;;;;;;4904328;29;20205;-82
2023/12/02 03:01:17;;;;;;;14.33;9.70;;;1.00;99.90;;;;;;4907311;29;20217;-83
2023/12/02 03:03:45;;;;;;;14.63;10.50;;;1.10;99.90;;;;;;4900439;29;20225;-83
2023/12/02 03:06:12;;;;;;;13.27;9.37;;;1.10;99.90;;;;;;4902638;29;20565;-82
2023/12/02 03:08:40;;;;;;;14.63;10.27;;;1.30;99.90;;;;;;4905515;29;20207;-82
2023/12/02 03:11:08;;;;;;;17.87;10.93;;;1.20;99.90;;;;;;4901768;29;20197;-82
2023/12/02 03:13:36;;;;;;;15.97;10.20;;;1.10;99.90;;;;;;4902614;29;20229;-82
2023/12/02 03:16:04;;;;;;;16.73;10.93;;;1.10;99.90;;;;;;4902571;29;20205;-82
2023/12/02 03:18:32;;;;;;;12.93;9.00;;;1.10;99.90;;;;;;4906100;29;20210;-82
2023/12/02 03:21:00;;;;;;;15.40;11.27;;;1.10;99.90;;;;;;4907236;29;20215;-82
2023/12/02 03:23:28;;;;;;;15.23;9.90;;;1.00;99.90;;;;;;4918690;29;20228;-82
2023/12/02 03:25:55;;;;;;;14.00;10.17;;;1.00;99.90;;;;;;4906752;29;20215;-82
2023/12/02 03:28:23;;;;;;;13.87;9.30;;;1.00;99.90;;;;;;4907049;29;20203;-82
2023/12/02 03:30:52;;;;;;;13.20;9.13;;;0.90;99.90;;;;;;4913324;29;20705;-82
2023/12/02 03:33:19;;;;;;;15.53;9.67;;;1.00;99.90;;;;;;4901113;29;20212;-82
2023/12/02 03:35:47;;;;;;;14.17;9.93;;;1.20;99.90;;;;;;4900209;29;20216;-81
2023/12/02 03:38:14;;;;;;;13.80;9.20;;;1.20;99.90;;;;;;4901514;29;20216;-83
2023/12/02 03:40:42;;;;;;;12.40;8.80;;;1.20;99.90;;;;;;4900269;29;20204;-82
2023/12/02 03:43:09;;;;;;;14.17;9.10;;;1.30;99.90;;;;;;4909014;29;20192;-82
2023/12/02 03:45:36;;;;;;;12.90;8.77;;;1.00;99.90;;;;;;4900832;29;20204;-82
2023/12/02 03:48:06;;;;;;;14.80;9.20;;;1.00;99.90;;;;;;4898329;29;20222;-82
2023/12/02 03:50:34;;;;;;;14.30;9.23;;;1.10;99.90;;;;;;4905535;29;20198;-82
2023/12/02 03:53:01;;;;;;;15.97;10.80;;;1.10;99.90;;;;;;4899937;29;20204;-82
2023/12/02 03:55:29;;;;;;;16.63;10.17;;;1.20;99.90;;;;;;4899439;29;20220;-82
2023/12/02 03:57:56;;;;;;;13.60;9.23;;;1.10;99.90;;;;;;4910205;29;20204;-82
2023/12/02 04:00:23;;;;;;;14.33;9.80;;;1.10;99.90;;;;;;4899973;29;20215;-82
2023/12/02 04:02:52;;;;;;;12.90;8.67;;;1.10;99.90;;;;;;4902682;29;20230;-81
2023/12/02 04:05:21;;;;;;;14.83;8.50;;;1.10;99.90;;;;;;4902865;29;20231;-82
2023/12/02 04:07:49;;;;;;;15.37;10.00;;;1.10;99.90;;;;;;4903418;29;20200;-82
2023/12/02 04:10:16;;;;;;;14.80;9.47;;;1.00;99.90;;;;;;4902622;29;20201;-82
2023/12/02 04:12:44;;;;;;;17.20;11.23;;;0.90;99.90;;;;;;4899810;29;20192;-82
2023/12/02 04:15:11;;;;;;;19.27;11.83;;;0.80;99.90;;;;;;4902951;29;20248;-82
2023/12/02 04:17:39;;;;;;;20.97;12.30;;;0.50;99.90;;;;;;4900471;29;20202;-82
2023/12/02 04:20:08;;;;;;;17.80;11.23;;;0.50;99.90;;;;;;4898987;29;20216;-82
2023/12/02 04:22:38;;;;;;;17.40;10.57;;;0.70;99.90;;;;;;4904157;29;20215;-82
2023/12/02 04:25:07;;;;;;;17.27;11.00;;;0.80;99.90;;;;;;4900117;29;20226;-82
2023/12/02 04:27:35;;;;;;;16.10;9.63;;;0.90;99.90;;;;;;4894156;29;20215;-82
2023/12/02 04:30:04;;;;;;;16.87;10.10;;;0.70;99.90;;;;;;4899537;29;20210;-82
2023/12/02 04:32:32;;;;;;;16.67;10.20;;;0.70;99.90;;;;;;4897260;29;20211;-82
2023/12/02 04:34:59;;;;;;;14.77;9.93;;;0.90;99.90;;;;;;4908297;29;20234;-82
2023/12/02 04:37:26;;;;;;;20.73;10.53;;;1.00;99.90;;;;;;4911025;29;20193;-83
2023/12/02 04:39:56;;;;;;;17.23;10.40;;;1.00;99.90;;;;;;4907545;29;20210;-82
2023/12/02 04:42:23;;;;;;;15.50;10.00;;;0.90;99.90;;;;;;4901484;29;20229;-82
2023/12/02 04:44:51;;;;;;;15.43;9.73;;;1.00;99.90;;;;;;4902258;29;20250;-82
2023/12/02 04:47:18;;;;;;;14.40;9.63;;;0.60;99.90;;;;;;4899119;29;20205;-83
2023/12/02 04:49:46;;;;;;;14.83;9.93;;;0.70;99.90;;;;;;4898236;29;20208;-82
2023/12/02 04:52:13;;;;;;;14.87;10.70;;;0.70;99.90;;;;;;4900119;29;20756;-82
2023/12/02 04:54:43;;;;;;;13.87;9.57;;;0.80;99.90;;;;;;4899486;29;20223;-81
2023/12/02 04:57:12;;;;;;;13.47;9.23;;;1.00;99.90;;;;;;4898654;29;20208;-82
2023/12/02 04:59:39;;;;;;;13.87;9.77;;;1.00;99.90;;;;;;4901955;29;20296;-82
2023/12/02 05:02:07;;;;;;;13.27;9.27;;;0.90;99.90;;;;;;4902362;29;20222;-82
2023/12/02 05:04:34;;;;;;;15.17;9.40;;;0.80;99.90;;;;;;4902619;29;20227;-82
2023/12/02 05:07:02;;;;;;;14.00;9.00;;;0.70;99.90;;;;;;4910696;29;20218;-82
2023/12/02 05:09:29;;;;;;;12.97;9.33;;;0.60;99.90;;;;;;4917612;29;20192;-82
2023/12/02 05:11:57;;;;;;;13.73;8.30;;;0.70;99.90;;;;;;4910537;29;20583;-82
2023/12/02 05:14:26;;;;;;;13.67;8.40;;;0.70;99.90;;;;;;4906610;29;20227;-82
2023/12/02 05:16:53;;;;;;;11.77;8.80;;;0.50;99.90;;;;;;4911616;29;20196;-82
2023/12/02 05:19:20;;;;;;;12.37;8.53;;;0.70;99.90;;;;;;4911758;29;20206;-82
2023/12/02 05:21:48;;;;;;;13.87;8.47;;;0.80;99.90;;;;;;4903914;29;20225;-82
2023/12/02 05:24:15;;;;;;;15.33;9.43;;;1.00;99.90;;;;;;4911904;29;20232;-82
2023/12/02 05:26:43;;;;;;;12.13;8.40;;;0.90;99.90;;;;;;4911518;29;20208;-82
2023/12/02 05:29:10;;;;;;;13.33;9.37;;;0.90;99.90;;;;;;4901106;29;20203;-82
2023/12/02 05:31:40;;;;;;;14.13;9.10;;;0.70;99.90;;;;;;4901378;29;20199;-82
2023/12/02 05:34:07;;;;;;;13.53;9.60;;;0.70;99.90;;;;;;4903281;29;20225;-82
2023/12/02 05:36:34;;;;;;;13.33;8.53;;;0.60;99.90;;;;;;4901222;29;20203;-82
2023/12/02 05:39:03;;;;;;;14.27;8.50;;;0.40;99.90;;;;;;4900874;29;20216;-82
2023/12/02 05:41:30;;;;;;;14.23;9.20;;;0.50;99.90;;;;;;4901546;29;20211;-82
2023/12/02 05:43:58;;;;;;;12.40;8.53;;;0.60;99.90;;;;;;4901130;29;20231;-82
2023/12/02 05:46:25;;;;;;;12.60;8.77;;;0.60;99.90;;;;;;4900908;29;20197;-82
2023/12/02 05:48:54;;;;;;;11.20;8.47;;;0.70;99.90;;;;;;4900435;29;20222;-82
2023/12/02 05:51:22;;;;;;;13.80;8.63;;;0.80;99.90;;;;;;4903627;29;20205;-82
2023/12/02 05:53:49;;;;;;;14.53;9.43;;;0.80;99.90;;;;;;4922508;29;20396;-82
2023/12/02 05:56:21;;;;;;;12.70;8.70;;;0.60;99.90;;;;;;4898745;29;20196;-82
2023/12/02 05:58:49;;;;;;;12.20;8.43;;;0.60;99.90;;;;;;4899276;29;20561;-82
2023/12/02 06:01:20;;;;;;;11.73;7.97;;;0.70;99.90;;;;;;4901351;29;20205;-82
2023/12/02 06:03:48;;;;;;;11.77;8.50;;;0.70;99.90;;;;;;4904697;29;20222;-82
2023/12/02 06:06:17;;;;;;;12.00;7.67;;;0.80;99.90;;;;;;4913778;29;20205;-82
2023/12/02 06:08:45;;;;;;;11.47;8.10;;;0.90;99.90;;;;;;4904902;29;20214;-83
2023/12/02 06:11:12;;;;;;;13.37;8.60;;;0.70;99.90;;;;;;4901256;29;20196;-82
2023/12/02 06:13:40;;;;;;;12.47;8.67;;;0.60;99.90;;;;;;4907193;29;20220;-82
2023/12/02 06:16:11;;;;;;;12.93;8.60;;;0.70;99.90;;;;;;4994019;23;20222;-79
2023/12/02 06:18:38;;;;;;;13.50;9.43;;;0.80;99.90;;;;;;4993916;28;20209;-79
2023/12/02 06:21:06;;;;;;;12.17;8.10;;;0.70;99.90;;;;;;4980784;28;20570;-79
2023/12/02 06:23:35;;;;;;;12.90;8.97;;;0.50;99.90;;;;;;4972035;28;20213;-79
2023/12/02 06:26:03;;;;;;;12.87;8.43;;;0.40;99.90;;;;;;4973797;28;20691;-79
2023/12/02 06:28:30;;;;;;;13.30;8.47;;;0.50;99.90;;;;;;4958670;29;20209;-79
2023/12/02 06:30:58;;;;;;;14.20;8.73;;;0.20;99.90;;;;;;4956083;28;20221;-79
2023/12/02 06:33:25;;;;;;;10.30;7.73;;;0.20;99.90;;;;;;4975951;28;20202;-79
2023/12/02 06:35:53;;;;;;;9.80;6.77;;;0.30;99.90;;;;;;4958744;28;20586;-80
2023/12/02 06:38:21;;;;;;;13.40;7.63;;;1.10;99.90;;;;;;4959259;28;20206;-80
2023/12/02 06:40:51;;;;;;;12.27;8.37;;;2.20;99.90;;;;;;4958897;29;20679;-80
2023/12/02 06:43:20;;;;;;;11.80;8.63;;;2.80;99.90;;;;;;4958930;29;20228;-80
2023/12/02 06:45:48;;;;;;;12.07;8.63;;;1.50;99.90;;;;;;4958327;28;20701;-80
2023/12/02 06:48:15;;;;;;;12.40;8.80;;;0.70;99.90;;;;;;4965377;28;20207;-80
2023/12/02 06:50:43;;;;;;;13.10;8.67;;;0.50;99.90;;;;;;4971302;28;20222;-80
2023/12/02 06:53:13;;;;;;;12.47;8.20;;;0.30;99.90;;;;;;4972314;28;20216;-79
2023/12/02 06:56:18;;;;;;;15.40;8.60;;;0.20;99.90;;;;;;4971878;28;20233;-80
2023/12/02 06:58:45;;;;;;;12.43;8.47;;;0.20;99.90;;;;;;4983193;28;20209;-79
2023/12/02 07:01:24;;;;;;;12.33;8.50;;;0.20;99.90;;;;;;4965245;28;20205;-78
2023/12/02 07:03:51;;;;;;;12.60;8.37;;;0.20;99.90;;;;;;4989907;28;20228;-79
2023/12/02 07:06:19;;;;;;;11.83;8.43;;;0.20;99.90;;;;;;4969197;28;20218;-78
2023/12/02 07:08:48;;;;;;;12.47;8.87;;;0.50;99.90;;;;;;4970840;28;20211;-79
2023/12/02 07:11:23;;;;;;;10.77;8.30;;;0.20;99.90;;;;;;4959021;29;20560;-79
2023/12/02 07:13:51;;;;;;;13.47;9.10;;;0.10;99.90;;;;;;4954218;29;20199;-78
2023/12/02 07:16:31;;;;;;;13.87;9.03;;;0.10;99.90;;;;;;4953988;28;20222;-78
2023/12/02 07:19:06;;;;;;;13.40;8.93;;;0.00;99.90;;;;;;4954571;29;20205;-78
2023/12/02 07:21:34;;;;;;;11.73;8.37;;;0.00;99.90;;;;;;4951209;28;20199;-79
2023/12/02 07:24:02;;;;;;;15.40;9.80;;;0.10;99.90;;;;;;4952207;29;20563;-79
2023/12/02 07:26:30;;;;;;;11.50;8.40;;;0.20;99.90;;;;;;4954770;28;20688;-79
2023/12/02 07:28:58;;;;;;;14.03;9.07;;;0.10;99.90;;;;;;4954443;28;20212;-79
2023/12/02 07:31:25;;;;;;;10.27;7.63;;;0.10;99.90;;;;;;4951753;29;20208;-79
2023/12/02 07:33:53;;;;;;;14.43;9.37;;;0.10;99.90;;;;;;4953794;29;20195;-79
2023/12/02 07:36:20;;;;;;;13.87;9.63;;;0.30;99.90;;;;;;4951394;29;20230;-79
2023/12/02 07:38:49;;;;;;;12.97;9.50;;;0.40;99.90;;;;;;4953057;29;20194;-79
2023/12/02 07:41:17;;;;;;;14.03;9.20;;;0.30;99.90;;;;;;4968291;28;20213;-79
2023/12/02 07:43:46;;;;;;;14.80;8.60;;;0.10;99.90;;;;;;4967072;28;20230;-79
2023/12/02 07:46:13;;;;;;;14.07;9.07;;;0.00;99.90;;;;;;4954638;28;20224;-78
2023/12/02 07:48:40;;;;;;;11.73;8.70;;;0.00;99.90;;;;;;4950142;29;20193;-79
2023/12/02 07:51:09;;;;;;;13.43;9.03;;;0.10;99.90;;;;;;4953237;29;20210;-79
2023/12/02 07:53:36;;;;;;;14.47;9.63;;;0.00;99.90;;;;;;4953466;28;20194;-79
2023/12/02 07:56:05;;;;;;;14.93;9.60;;;-0.10;99.90;;;;;;4955637;28;20225;-78
2023/12/02 07:58:33;;;;;;;15.80;9.13;;;0.00;99.90;;;;;;4960438;28;20205;-78
2023/12/02 08:01:02;;;;;;;15.60;9.90;;;0.40;99.90;;;;;;4963686;28;20210;-79
2023/12/02 08:03:29;;;;;;;14.53;9.73;;;0.50;99.90;;;;;;4966497;28;20403;-78
2023/12/02 08:05:57;;;;;;;12.10;9.37;;;0.50;99.90;;;;;;4958357;28;20225;-80
2023/12/02 08:08:31;;;;;;;13.93;9.90;;;0.60;99.90;;;;;;4947176;29;20205;-79
2023/12/02 08:10:58;;;;;;;13.40;9.70;;;0.30;99.90;;;;;;4953479;28;20212;-79
2023/12/02 08:13:26;;;;;;;15.87;9.70;;;0.10;99.90;;;;;;4948753;29;20210;-80
2023/12/02 08:15:53;;;;;;;15.43;10.53;;;0.10;99.90;;;;;;4953859;28;20261;-79
2023/12/02 08:18:22;;;;;;;14.50;9.97;;;0.40;99.90;;;;;;4961502;28;20211;-80
2023/12/02 08:20:50;;;;;;;14.07;9.50;;;0.40;99.90;;;;;;4953331;28;20213;-81
2023/12/02 08:23:17;;;;;;;11.30;6.23;;;0.50;99.90;;;;;;4960864;28;20228;-77
2023/12/02 08:25:45;;;;;;;14.83;9.53;;;2.90;99.90;;;;;;4954605;28;20719;-79
2023/12/02 08:28:15;;;;;;;15.83;10.00;;;3.60;99.90;;;;;;4946248;28;20691;-81
2023/12/02 08:30:43;;;;;;;16.27;9.93;;;1.70;99.90;;;;;;4955163;28;20667;-79
2023/12/02 08:33:10;;;;;;;15.07;9.93;;;0.90;99.90;;;;;;4955346;28;20229;-81
2023/12/02 08:35:40;;;;;;;14.90;10.10;;;0.60;99.90;;;;;;4959408;28;20230;-80
2023/12/02 08:38:07;;;;;;;13.87;9.17;;;0.50;99.90;;;;;;4953833;28;20201;-80
2023/12/02 08:40:35;;;;;;;13.97;9.37;;;0.60;99.90;;;;;;4964300;28;20201;-80
2023/12/02 08:43:02;;;;;;;14.90;9.57;;;0.50;99.90;;;;;;4958729;28;20214;-80
2023/12/02 08:45:30;;;;;;;15.87;10.10;;;0.50;99.90;;;;;;4957711;28;20234;-81
2023/12/02 08:48:11;;;;;;;15.43;10.30;;;0.60;99.90;;;;;;4959219;29;20200;-81
2023/12/02 08:50:41;;;;;;;15.13;10.30;;;0.20;99.90;;;;;;4967110;28;20703;-80
2023/12/02 08:53:08;;;;;;;13.20;9.30;;;0.30;99.90;;;;;;4959016;29;20214;-80
2023/12/02 08:56:02;;;;;;;15.73;10.40;;;0.40;99.90;;;;;;4969612;28;20703;-81
2023/12/02 08:58:29;;;;;;;15.53;9.97;;;0.10;99.90;;;;;;4955651;28;20198;-80
2023/12/02 09:00:57;;;;;;;15.33;9.97;;;0.60;99.90;;;;;;4959897;29;20207;-81
2023/12/02 09:03:28;;;;;;;14.90;9.47;;;0.60;99.90;;;;;;4957567;29;20210;-81
2023/12/02 09:06:03;;;;;;;14.70;9.87;;;0.50;99.90;;;;;;4958177;28;20226;-80
2023/12/02 09:08:30;;;;;;;15.40;9.90;;;0.60;99.90;;;;;;4957997;29;20220;-81
2023/12/02 09:10:58;;;;;;;14.97;10.63;;;0.70;99.90;;;;;;4961785;28;20210;-80
2023/12/02 09:13:41;;;;;;;16.70;10.50;;;1.00;99.90;;;;;;4964880;28;20202;-80
2023/12/02 09:16:11;;;;;;;16.37;10.90;;;0.80;99.90;;;;;;4957357;28;20230;-80
2023/12/02 09:18:39;;;;;;;16.20;10.63;;;0.60;99.90;;;;;;4958665;29;20190;-80
2023/12/02 09:21:20;;;;;;;15.63;10.47;;;0.80;99.90;;;;;;4958917;28;20218;-79
2023/12/02 09:23:47;;;;;;;15.43;10.87;;;0.80;99.90;;;;;;4963566;28;20230;-80
2023/12/02 09:26:27;;;;;;;16.20;10.50;;;0.60;99.90;;;;;;4963123;28;20228;-82
2023/12/02 09:28:55;;;;;;;16.43;10.90;;;0.40;99.90;;;;;;4964730;28;20200;-79
2023/12/02 09:31:23;;;;;;;16.47;10.70;;;0.50;99.90;;;;;;4959199;28;20686;-79
2023/12/02 09:33:58;;;;;;;17.53;11.10;;;0.50;99.90;;;;;;4960316;28;20198;-80
2023/12/02 09:36:33;;;;;;;17.73;11.23;;;0.80;99.90;;;;;;4961236;28;20222;-79
2023/12/02 09:39:45;;;;;;;16.30;10.60;;;0.50;99.90;;;;;;4957750;28;20198;-79
2023/12/02 09:42:13;;;;;;;16.13;10.73;;;0.00;99.90;;;;;;4962980;28;20210;-80
2023/12/02 09:44:47;;;;;;;13.63;9.23;;;0.10;99.90;;;;;;4953077;28;20589;-80
2023/12/02 09:47:18;;;;;;;14.83;10.20;;;0.50;99.90;;;;;;4959069;28;20206;-80
2023/12/02 09:50:09;;;;;;;16.60;10.80;;;0.90;99.90;;;;;;4953500;28;20212;-80
2023/12/02 09:52:49;;;;;;;15.27;10.87;;;0.90;99.90;;;;;;4958044;29;20205;-80
2023/12/02 09:55:21;;;;;;;17.37;10.73;;;0.70;99.90;;;;;;4966870;28;20220;-80
2023/12/02 09:57:56;;;;;;;14.83;9.83;;;0.90;99.90;;;;;;4962933;28;20202;-80
2023/12/02 10:00:36;;;;;;;14.13;10.13;;;1.00;99.90;;;;;;4958254;29;20291;-80
2023/12/02 10:03:18;;;;;;;18.53;11.13;;;1.00;99.90;;;;;;4959191;29;20201;-80
2023/12/02 10:05:57;;;;;;;13.53;9.60;;;0.70;99.90;;;;;;4952871;28;20235;-80
2023/12/02 10:08:34;;;;;;;16.70;10.23;;;1.00;99.90;;;;;;4958084;29;20206;-80
2023/12/02 10:11:07;;;;;;;15.07;9.87;;;1.50;99.90;;;;;;4966597;28;20663;-80
2023/12/02 10:13:45;;;;;;;15.73;10.07;;;1.40;99.90;;;;;;4956417;29;20205;-79
2023/12/02 10:16:15;;;;;;;13.27;9.03;;;1.50;99.90;;;;;;4960153;28;20702;-80
2023/12/02 10:18:50;;;;;;;17.77;10.77;;;1.80;99.90;;;;;;4958737;29;20202;-80
2023/12/02 10:21:23;;;;;;;13.83;9.70;;;1.90;99.90;;;;;;4957493;29;20660;-80
2023/12/02 10:23:58;;;;;;;14.93;9.93;;;2.10;99.90;;;;;;4959042;29;20208;-80
2023/12/02 10:26:28;;;;;;;14.57;10.07;;;2.70;99.90;;;;;;4959597;28;20226;-80
2023/12/02 10:29:10;;;;;;;16.23;10.80;;;2.20;99.90;;;;;;4958615;29;20320;-80
2023/12/02 10:31:52;;;;;;;15.10;10.43;;;1.70;99.90;;;;;;4958552;28;20203;-80
2023/12/02 10:34:25;;;;;;;12.93;9.50;;;2.50;99.90;;;;;;4958692;28;20204;-80
2023/12/02 10:36:56;;;;;;;17.73;11.63;;;2.90;99.90;;;;;;4959449;28;20199;-80
2023/12/02 10:39:40;;;;;;;16.67;10.30;;;3.60;99.90;;;;;;4958688;29;20573;-80
2023/12/02 10:42:14;;;;;;;16.20;10.40;;;4.00;98.90;;;;;;4959272;29;20191;-80
2023/12/02 10:44:44;;;;;;;15.40;11.33;;;3.10;98.30;;;;;;4955043;28;20230;-80
2023/12/02 10:47:13;;;;;;;16.07;10.83;;;4.20;99.40;;;;;;4958401;28;20191;-80
2023/12/02 10:49:41;;;;;;;14.40;10.50;;;4.60;97.00;;;;;;4958305;29;20198;-80
2023/12/02 10:52:13;;;;;;;14.57;10.10;;;3.90;96.10;;;;;;4963780;28;20675;-80
2023/12/02 10:54:48;;;;;;;15.47;10.40;;;3.10;97.50;;;;;;4964656;28;20215;-80
2023/12/02 10:57:20;;;;;;;15.87;11.53;;;3.80;97.60;;;;;;4956212;28;20204;-80
2023/12/02 11:00:06;;;;;;;14.83;10.47;;;4.00;96.90;;;;;;4975179;28;20698;-80
2023/12/02 11:02:39;;;;;;;13.40;9.83;;;2.90;97.60;;;;;;4956791;28;20651;-79
2023/12/02 11:05:20;;;;;;;16.10;10.57;;;3.60;98.30;;;;;;4955156;28;20225;-79
2023/12/02 11:07:49;;;;;;;15.60;10.30;;;4.30;96.20;;;;;;4966421;28;20214;-79
2023/12/02 11:10:29;;;;;;;13.73;9.67;;;4.00;95.70;;;;;;4966380;28;20196;-80
2023/12/02 11:13:02;;;;;;;16.17;10.70;;;5.10;96.90;;;;;;4986708;28;20207;-80
2023/12/02 11:15:37;;;;;;;15.80;10.33;;;4.40;95.00;;;;;;4970139;28;20236;-79
2023/12/02 11:18:05;;;;;;;14.93;10.30;;;5.10;95.10;;;;;;4982414;28;20208;-80
2023/12/02 11:20:43;;;;;;;14.47;10.73;;;4.10;94.40;;;;;;4957078;28;20216;-80
2023/12/02 11:23:35;;;;;;;14.20;10.10;;;5.20;95.00;;;;;;4973789;28;20211;-80
2023/12/02 11:26:17;;;;;;;13.97;10.37;;;5.70;93.50;;;;;;4953580;28;20569;-80
2023/12/02 11:29:01;;;;;;;12.20;9.57;;;6.10;92.40;;;;;;4954298;28;20217;-80
2023/12/02 11:31:58;;;;;;;14.20;10.67;;;4.40;93.10;;;;;;4959252;28;20208;-80
2023/12/02 11:34:39;;;;;;;15.87;10.47;;;4.20;94.60;;;;;;4969866;28;20665;-79
2023/12/02 11:37:15;;;;;;;15.53;10.93;;;3.60;96.00;;;;;;4955156;28;20585;-79
2023/12/02 11:39:56;;;;;;;16.67;11.77;;;3.60;96.10;;;;;;4956357;29;20207;-80
2023/12/02 11:42:30;;;;;;;18.07;11.90;;;3.30;96.10;;;;;;4953787;29;20208;-80
2023/12/02 11:45:11;;;;;;;14.37;11.40;;;3.30;96.40;;;;;;4956190;28;20251;-79
2023/12/02 11:47:55;;;;;;;17.50;11.83;;;3.60;97.50;;;;;;4954290;29;20205;-79
2023/12/02 11:50:32;;;;;;;18.20;11.80;;;3.90;96.20;;;;;;4950256;29;20190;-80
2023/12/02 11:53:23;;;;;;;16.37;11.50;;;3.80;96.20;;;;;;4961654;28;20205;-80
2023/12/02 11:56:07;;;;;;;17.00;12.17;;;3.90;95.80;;;;;;4959217;28;20235;-79
2023/12/02 11:58:50;;;;;;;16.80;11.77;;;3.90;96.60;;;;;;4957362;28;20221;-79
2023/12/02 12:01:31;;;;;;;17.43;11.83;;;4.60;95.50;;;;;;4950679;29;20212;-79
2023/12/02 12:04:18;;;;;;;19.27;13.03;;;4.60;94.40;;;;;;4972747;28;20209;-79
2023/12/02 12:06:56;;;;;;;16.20;12.20;;;5.80;94.00;;;;;;4956001;28;20225;-79
2023/12/02 12:09:30;;;;;;;16.20;11.53;;;5.60;93.20;;;;;;4956152;29;20206;-79
2023/12/02 12:11:59;;;;;;;15.23;11.63;;;5.90;93.20;;;;;;4956270;29;20207;-79
2023/12/02 12:14:30;;;;;;;17.13;11.23;;;5.90;92.20;;;;;;4947908;29;20207;-79
2023/12/02 12:16:58;;;;;;;15.03;11.37;;;6.80;92.20;;;;;;4955125;29;20198;-80
2023/12/02 12:19:27;;;;;;;15.43;11.27;;;5.50;92.30;;;;;;4954386;29;20611;-79
2023/12/02 12:21:56;;;;;;;13.17;11.33;;;5.10;92.30;;;;;;4957384;28;20208;-79
2023/12/02 12:24:24;;;;;;;14.83;10.57;;;5.10;93.00;;;;;;4956322;28;20611;-80
2023/12/02 12:26:51;;;;;;;15.43;10.90;;;4.20;93.70;;;;;;4963206;28;20215;-79
2023/12/02 12:29:19;;;;;;;16.67;11.37;;;3.50;94.70;;;;;;4956477;28;20212;-79
2023/12/02 12:31:48;;;;;;;16.43;11.57;;;4.20;94.90;;;;;;4966830;28;20221;-79
2023/12/02 12:34:18;;;;;;;14.23;11.07;;;3.50;95.70;;;;;;4954527;28;20201;-80
2023/12/02 12:36:45;;;;;;;18.53;11.60;;;4.00;94.50;;;;;;4955848;29;20225;-80
2023/12/02 12:39:16;;;;;;;18.13;11.87;;;4.10;94.90;;;;;;4953345;29;20200;-80
2023/12/02 12:41:44;;;;;;;18.77;13.20;;;5.60;92.80;;;;;;4945097;28;20199;-79
2023/12/02 12:44:12;;;;;;;15.43;11.70;;;4.50;94.30;;;;;;4950972;29;20209;-79
2023/12/02 12:46:42;;;;;;;19.10;13.90;;;4.30;95.00;;;;;;4961371;28;20225;-79
2023/12/02 12:49:13;;;;;;;19.87;13.17;;;3.90;94.60;;;;;;4954504;28;20201;-79
2023/12/02 12:51:42;;;;;;;20.17;15.20;;;3.70;96.10;;;;;;4952412;28;20205;-79
2023/12/02 12:54:15;;;;;;;20.37;13.83;;;3.80;96.40;;;;;;4961185;28;20206;-80
2023/12/02 12:56:47;;;;;;;25.53;15.00;;;4.00;96.00;;;;;;4948489;28;20704;-77
2023/12/02 12:59:17;;;;;;;23.57;14.47;;;4.90;95.40;;;;;;4953601;29;20197;-79
2023/12/02 13:01:55;;;;;;;20.03;14.17;;;4.10;94.90;;;;;;4957391;29;20209;-79